sensor_id;sensor_type;location;lat;lon;timestamp;P1;durP1;ratioP1;P2;durP2;ratioP2
11921;SDS011;6021;51.182;3.160;2022-09-09T00:01:39;9.73;;;6.37;;
11921;SDS011;6021;51.182;3.160;2022-09-09T00:07:03;8.57;;;5.70;;
11921;SDS011;6021;51.182;3.160;2022-09-09T00:15:41;8.83;;;5.87;;
11921;SDS011;6021;51.182;3.160;2022-09-09T00:18:21;8.33;;;5.20;;
11921;SDS011;6021;51.182;3.160;2022-09-09T00:20:58;7.87;;;4.97;;
11921;SDS011;6021;51.182;3.160;2022-09-09T00:23:32;11.43;;;5.20;;
11921;SDS011;6021;51.182;3.160;2022-09-09T00:26:04;6.60;;;4.77;;
11921;SDS011;6021;51.182;3.160;2022-09-09T00:28:36;7.30;;;4.43;;
11921;SDS011;6021;51.182;3.160;2022-09-09T00:31:15;6.90;;;4.33;;
11921;SDS011;6021;51.182;3.160;2022-09-09T00:33:40;6.50;;;3.83;;
11921;SDS011;6021;51.182;3.160;2022-09-09T00:36:16;8.93;;;4.43;;
11921;SDS011;6021;51.182;3.160;2022-09-09T00:38:50;7.27;;;3.93;;
11921;SDS011;6021;51.182;3.160;2022-09-09T00:44:25;6.60;;;3.70;;
11921;SDS011;6021;51.182;3.160;2022-09-09T00:55:45;6.00;;;3.23;;
11921;SDS011;6021;51.182;3.160;2022-09-09T00:58:12;6.37;;;3.00;;
11921;SDS011;6021;51.182;3.160;2022-09-09T01:00:50;4.80;;;2.87;;
11921;SDS011;6021;51.182;3.160;2022-09-09T01:11:49;6.20;;;2.83;;
11921;SDS011;6021;51.182;3.160;2022-09-09T01:17:26;4.53;;;2.53;;
11921;SDS011;6021;51.182;3.160;2022-09-09T01:19:59;6.37;;;2.53;;
11921;SDS011;6021;51.182;3.160;2022-09-09T01:23:16;5.97;;;2.47;;
11921;SDS011;6021;51.182;3.160;2022-09-09T01:25:19;5.37;;;2.57;;
11921;SDS011;6021;51.182;3.160;2022-09-09T01:27:53;4.87;;;2.60;;
11921;SDS011;6021;51.182;3.160;2022-09-09T01:30:25;6.93;;;2.80;;
11921;SDS011;6021;51.182;3.160;2022-09-09T01:32:55;5.50;;;2.70;;
11921;SDS011;6021;51.182;3.160;2022-09-09T01:37:57;6.70;;;2.73;;
11921;SDS011;6021;51.182;3.160;2022-09-09T01:40:26;7.50;;;3.00;;
11921;SDS011;6021;51.182;3.160;2022-09-09T01:42:54;4.07;;;2.47;;
11921;SDS011;6021;51.182;3.160;2022-09-09T01:45:26;4.47;;;2.30;;
11921;SDS011;6021;51.182;3.160;2022-09-09T01:47:56;5.50;;;2.67;;
11921;SDS011;6021;51.182;3.160;2022-09-09T01:50:25;5.43;;;2.60;;
11921;SDS011;6021;51.182;3.160;2022-09-09T01:52:55;4.70;;;2.30;;
11921;SDS011;6021;51.182;3.160;2022-09-09T01:55:38;5.80;;;2.50;;
11921;SDS011;6021;51.182;3.160;2022-09-09T02:01:08;6.37;;;2.30;;
11921;SDS011;6021;51.182;3.160;2022-09-09T02:03:37;7.70;;;2.60;;
11921;SDS011;6021;51.182;3.160;2022-09-09T02:08:56;5.80;;;2.60;;
11921;SDS011;6021;51.182;3.160;2022-09-09T02:11:27;9.53;;;2.80;;
11921;SDS011;6021;51.182;3.160;2022-09-09T02:14:00;7.10;;;2.30;;
11921;SDS011;6021;51.182;3.160;2022-09-09T02:16:38;5.70;;;2.43;;
11921;SDS011;6021;51.182;3.160;2022-09-09T02:19:23;5.77;;;2.60;;
11921;SDS011;6021;51.182;3.160;2022-09-09T02:21:54;6.90;;;2.70;;
11921;SDS011;6021;51.182;3.160;2022-09-09T02:24:24;9.23;;;2.70;;
11921;SDS011;6021;51.182;3.160;2022-09-09T02:26:54;5.40;;;2.47;;
11921;SDS011;6021;51.182;3.160;2022-09-09T02:29:26;10.63;;;2.90;;
11921;SDS011;6021;51.182;3.160;2022-09-09T02:32:04;7.77;;;2.80;;
11921;SDS011;6021;51.182;3.160;2022-09-09T02:34:36;9.43;;;3.00;;
11921;SDS011;6021;51.182;3.160;2022-09-09T02:37:06;4.80;;;2.50;;
11921;SDS011;6021;51.182;3.160;2022-09-09T02:39:36;7.23;;;2.50;;
11921;SDS011;6021;51.182;3.160;2022-09-09T02:42:05;4.50;;;2.43;;
11921;SDS011;6021;51.182;3.160;2022-09-09T02:44:34;5.93;;;2.70;;
11921;SDS011;6021;51.182;3.160;2022-09-09T02:49:48;7.90;;;2.57;;
11921;SDS011;6021;51.182;3.160;2022-09-09T02:52:45;5.87;;;2.50;;
11921;SDS011;6021;51.182;3.160;2022-09-09T02:55:17;5.27;;;2.47;;
11921;SDS011;6021;51.182;3.160;2022-09-09T02:57:47;6.10;;;2.60;;
11921;SDS011;6021;51.182;3.160;2022-09-09T03:00:22;7.37;;;2.70;;
11921;SDS011;6021;51.182;3.160;2022-09-09T03:02:55;6.33;;;2.70;;
11921;SDS011;6021;51.182;3.160;2022-09-09T03:05:24;6.27;;;2.40;;
11921;SDS011;6021;51.182;3.160;2022-09-09T03:07:54;5.10;;;2.40;;
11921;SDS011;6021;51.182;3.160;2022-09-09T03:10:24;8.87;;;2.43;;
11921;SDS011;6021;51.182;3.160;2022-09-09T03:12:56;7.63;;;2.83;;
11921;SDS011;6021;51.182;3.160;2022-09-09T03:15:24;6.43;;;2.30;;
11921;SDS011;6021;51.182;3.160;2022-09-09T03:17:54;6.93;;;2.57;;
11921;SDS011;6021;51.182;3.160;2022-09-09T03:20:24;6.13;;;2.33;;
11921;SDS011;6021;51.182;3.160;2022-09-09T03:22:53;7.03;;;2.53;;
11921;SDS011;6021;51.182;3.160;2022-09-09T03:25:23;7.33;;;2.77;;
11921;SDS011;6021;51.182;3.160;2022-09-09T03:27:52;6.67;;;2.53;;
11921;SDS011;6021;51.182;3.160;2022-09-09T03:30:25;7.83;;;2.80;;
11921;SDS011;6021;51.182;3.160;2022-09-09T03:32:54;7.50;;;2.77;;
11921;SDS011;6021;51.182;3.160;2022-09-09T03:35:23;9.43;;;2.63;;
11921;SDS011;6021;51.182;3.160;2022-09-09T03:37:52;6.33;;;2.33;;
11921;SDS011;6021;51.182;3.160;2022-09-09T03:40:21;4.23;;;2.40;;
11921;SDS011;6021;51.182;3.160;2022-09-09T03:42:49;7.23;;;2.63;;
11921;SDS011;6021;51.182;3.160;2022-09-09T03:45:18;7.73;;;3.10;;
11921;SDS011;6021;51.182;3.160;2022-09-09T03:47:46;8.50;;;3.30;;
11921;SDS011;6021;51.182;3.160;2022-09-09T03:50:15;9.10;;;3.27;;
11921;SDS011;6021;51.182;3.160;2022-09-09T03:52:44;9.67;;;3.53;;
11921;SDS011;6021;51.182;3.160;2022-09-09T03:55:14;8.17;;;3.50;;
11921;SDS011;6021;51.182;3.160;2022-09-09T03:57:42;8.53;;;2.90;;
11921;SDS011;6021;51.182;3.160;2022-09-09T04:00:12;10.80;;;3.50;;
11921;SDS011;6021;51.182;3.160;2022-09-09T04:02:41;8.30;;;3.40;;
11921;SDS011;6021;51.182;3.160;2022-09-09T04:05:10;10.87;;;3.90;;
11921;SDS011;6021;51.182;3.160;2022-09-09T04:07:38;9.07;;;3.80;;
11921;SDS011;6021;51.182;3.160;2022-09-09T04:10:07;10.10;;;4.00;;
11921;SDS011;6021;51.182;3.160;2022-09-09T04:12:36;12.63;;;4.43;;
11921;SDS011;6021;51.182;3.160;2022-09-09T04:15:04;10.33;;;4.20;;
11921;SDS011;6021;51.182;3.160;2022-09-09T04:17:34;14.30;;;4.60;;
11921;SDS011;6021;51.182;3.160;2022-09-09T04:20:03;11.13;;;4.20;;
11921;SDS011;6021;51.182;3.160;2022-09-09T04:22:31;13.50;;;4.37;;
11921;SDS011;6021;51.182;3.160;2022-09-09T04:25:00;14.70;;;4.50;;
11921;SDS011;6021;51.182;3.160;2022-09-09T04:27:28;14.70;;;4.70;;
11921;SDS011;6021;51.182;3.160;2022-09-09T04:29:57;13.77;;;5.10;;
11921;SDS011;6021;51.182;3.160;2022-09-09T04:32:25;12.90;;;4.90;;
11921;SDS011;6021;51.182;3.160;2022-09-09T04:34:54;7.17;;;4.00;;
11921;SDS011;6021;51.182;3.160;2022-09-09T04:37:22;8.90;;;4.23;;
11921;SDS011;6021;51.182;3.160;2022-09-09T04:39:51;11.23;;;4.43;;
11921;SDS011;6021;51.182;3.160;2022-09-09T04:42:19;10.43;;;4.23;;
11921;SDS011;6021;51.182;3.160;2022-09-09T04:44:49;15.00;;;4.50;;
11921;SDS011;6021;51.182;3.160;2022-09-09T04:47:17;9.70;;;4.23;;
11921;SDS011;6021;51.182;3.160;2022-09-09T04:49:45;15.03;;;4.70;;
11921;SDS011;6021;51.182;3.160;2022-09-09T04:54:45;11.03;;;4.40;;
11921;SDS011;6021;51.182;3.160;2022-09-09T04:57:13;11.50;;;4.40;;
11921;SDS011;6021;51.182;3.160;2022-09-09T04:59:41;11.27;;;4.67;;
11921;SDS011;6021;51.182;3.160;2022-09-09T05:02:11;12.37;;;4.28;;
11921;SDS011;6021;51.182;3.160;2022-09-09T05:04:39;10.67;;;4.27;;
11921;SDS011;6021;51.182;3.160;2022-09-09T05:07:07;10.63;;;4.33;;
11921;SDS011;6021;51.182;3.160;2022-09-09T05:09:36;12.57;;;4.67;;
11921;SDS011;6021;51.182;3.160;2022-09-09T05:12:05;13.13;;;4.43;;
11921;SDS011;6021;51.182;3.160;2022-09-09T05:14:34;12.30;;;4.77;;
11921;SDS011;6021;51.182;3.160;2022-09-09T05:17:03;10.47;;;4.30;;
11921;SDS011;6021;51.182;3.160;2022-09-09T05:19:32;10.03;;;4.57;;
11921;SDS011;6021;51.182;3.160;2022-09-09T05:22:00;8.90;;;4.00;;
11921;SDS011;6021;51.182;3.160;2022-09-09T05:24:29;11.30;;;4.63;;
11921;SDS011;6021;51.182;3.160;2022-09-09T05:26:59;11.23;;;4.17;;
11921;SDS011;6021;51.182;3.160;2022-09-09T05:29:29;10.40;;;4.83;;
11921;SDS011;6021;51.182;3.160;2022-09-09T05:31:59;9.83;;;5.10;;
11921;SDS011;6021;51.182;3.160;2022-09-09T05:34:27;11.57;;;4.63;;
11921;SDS011;6021;51.182;3.160;2022-09-09T05:36:56;12.70;;;4.97;;
11921;SDS011;6021;51.182;3.160;2022-09-09T05:39:24;11.87;;;4.97;;
11921;SDS011;6021;51.182;3.160;2022-09-09T05:41:54;13.03;;;4.70;;
11921;SDS011;6021;51.182;3.160;2022-09-09T05:44:22;15.60;;;5.43;;
11921;SDS011;6021;51.182;3.160;2022-09-09T05:46:52;14.63;;;5.10;;
11921;SDS011;6021;51.182;3.160;2022-09-09T05:51:52;15.60;;;4.83;;
11921;SDS011;6021;51.182;3.160;2022-09-09T05:54:20;9.47;;;4.00;;
11921;SDS011;6021;51.182;3.160;2022-09-09T05:56:48;12.57;;;4.83;;
11921;SDS011;6021;51.182;3.160;2022-09-09T05:59:17;9.73;;;4.30;;
11921;SDS011;6021;51.182;3.160;2022-09-09T06:01:45;9.90;;;4.70;;
11921;SDS011;6021;51.182;3.160;2022-09-09T06:04:14;7.30;;;4.28;;
11921;SDS011;6021;51.182;3.160;2022-09-09T06:06:42;12.93;;;4.40;;
11921;SDS011;6021;51.182;3.160;2022-09-09T06:09:11;9.07;;;4.60;;
11921;SDS011;6021;51.182;3.160;2022-09-09T06:11:40;12.67;;;5.10;;
11921;SDS011;6021;51.182;3.160;2022-09-09T06:14:09;10.57;;;4.70;;
11921;SDS011;6021;51.182;3.160;2022-09-09T06:16:37;17.43;;;5.73;;
11921;SDS011;6021;51.182;3.160;2022-09-09T06:19:07;10.20;;;4.90;;
11921;SDS011;6021;51.182;3.160;2022-09-09T06:21:36;9.63;;;4.53;;
11921;SDS011;6021;51.182;3.160;2022-09-09T06:24:05;11.73;;;4.90;;
11921;SDS011;6021;51.182;3.160;2022-09-09T06:26:38;12.03;;;4.80;;
11921;SDS011;6021;51.182;3.160;2022-09-09T06:31:38;11.13;;;4.60;;
11921;SDS011;6021;51.182;3.160;2022-09-09T06:34:07;8.80;;;4.03;;
11921;SDS011;6021;51.182;3.160;2022-09-09T06:36:37;13.13;;;4.70;;
11921;SDS011;6021;51.182;3.160;2022-09-09T06:39:06;12.20;;;4.77;;
11921;SDS011;6021;51.182;3.160;2022-09-09T06:41:37;9.87;;;5.03;;
11921;SDS011;6021;51.182;3.160;2022-09-09T06:44:05;12.90;;;4.80;;
11921;SDS011;6021;51.182;3.160;2022-09-09T06:46:33;12.87;;;4.73;;
11921;SDS011;6021;51.182;3.160;2022-09-09T06:49:02;11.30;;;5.20;;
11921;SDS011;6021;51.182;3.160;2022-09-09T06:51:32;14.30;;;5.30;;
11921;SDS011;6021;51.182;3.160;2022-09-09T06:54:06;12.67;;;4.77;;
11921;SDS011;6021;51.182;3.160;2022-09-09T06:56:35;12.73;;;5.23;;
11921;SDS011;6021;51.182;3.160;2022-09-09T06:59:08;8.83;;;4.07;;
11921;SDS011;6021;51.182;3.160;2022-09-09T07:01:39;11.90;;;4.60;;
11921;SDS011;6021;51.182;3.160;2022-09-09T07:04:10;12.10;;;4.80;;
11921;SDS011;6021;51.182;3.160;2022-09-09T07:06:41;13.37;;;4.93;;
11921;SDS011;6021;51.182;3.160;2022-09-09T07:09:12;10.07;;;4.50;;
11921;SDS011;6021;51.182;3.160;2022-09-09T07:11:49;13.33;;;4.70;;
11921;SDS011;6021;51.182;3.160;2022-09-09T07:14:14;12.45;;;4.70;;
11921;SDS011;6021;51.182;3.160;2022-09-09T07:16:44;12.23;;;4.63;;
11921;SDS011;6021;51.182;3.160;2022-09-09T07:19:13;13.70;;;4.87;;
11921;SDS011;6021;51.182;3.160;2022-09-09T07:21:42;11.80;;;4.60;;
11921;SDS011;6021;51.182;3.160;2022-09-09T07:24:12;10.80;;;4.35;;
11921;SDS011;6021;51.182;3.160;2022-09-09T07:26:42;12.73;;;4.70;;
11921;SDS011;6021;51.182;3.160;2022-09-09T07:29:10;10.40;;;4.77;;
11921;SDS011;6021;51.182;3.160;2022-09-09T07:31:41;16.80;;;5.37;;
11921;SDS011;6021;51.182;3.160;2022-09-09T07:34:10;11.80;;;4.73;;
11921;SDS011;6021;51.182;3.160;2022-09-09T07:36:38;9.83;;;4.07;;
11921;SDS011;6021;51.182;3.160;2022-09-09T07:39:09;14.67;;;4.83;;
11921;SDS011;6021;51.182;3.160;2022-09-09T07:41:41;11.77;;;4.90;;
11921;SDS011;6021;51.182;3.160;2022-09-09T07:44:11;11.63;;;5.00;;
11921;SDS011;6021;51.182;3.160;2022-09-09T07:46:41;12.80;;;4.80;;
11921;SDS011;6021;51.182;3.160;2022-09-09T07:49:11;10.13;;;4.90;;
11921;SDS011;6021;51.182;3.160;2022-09-09T07:51:43;9.50;;;4.90;;
11921;SDS011;6021;51.182;3.160;2022-09-09T07:54:16;8.03;;;5.40;;
11921;SDS011;6021;51.182;3.160;2022-09-09T07:56:50;6.90;;;5.20;;
11921;SDS011;6021;51.182;3.160;2022-09-09T08:01:55;6.77;;;4.87;;
11921;SDS011;6021;51.182;3.160;2022-09-09T08:04:23;9.33;;;5.30;;
11921;SDS011;6021;51.182;3.160;2022-09-09T08:09:27;12.57;;;5.80;;
11921;SDS011;6021;51.182;3.160;2022-09-09T08:11:56;9.80;;;5.30;;
11921;SDS011;6021;51.182;3.160;2022-09-09T08:14:27;7.20;;;5.23;;
11921;SDS011;6021;51.182;3.160;2022-09-09T08:16:56;10.33;;;6.00;;
11921;SDS011;6021;51.182;3.160;2022-09-09T08:19:25;8.17;;;5.40;;
11921;SDS011;6021;51.182;3.160;2022-09-09T08:21:55;7.90;;;5.43;;
11921;SDS011;6021;51.182;3.160;2022-09-09T08:24:25;10.93;;;5.77;;
11921;SDS011;6021;51.182;3.160;2022-09-09T08:26:53;11.20;;;5.67;;
11921;SDS011;6021;51.182;3.160;2022-09-09T08:29:23;9.20;;;5.00;;
11921;SDS011;6021;51.182;3.160;2022-09-09T08:31:52;7.77;;;4.87;;
11921;SDS011;6021;51.182;3.160;2022-09-09T08:34:24;7.93;;;4.13;;
11921;SDS011;6021;51.182;3.160;2022-09-09T08:36:53;6.87;;;4.93;;
11921;SDS011;6021;51.182;3.160;2022-09-09T08:39:22;8.03;;;4.50;;
11921;SDS011;6021;51.182;3.160;2022-09-09T08:47:19;9.43;;;4.70;;
11921;SDS011;6021;51.182;3.160;2022-09-09T08:52:31;7.63;;;4.50;;
11921;SDS011;6021;51.182;3.160;2022-09-09T08:58:06;8.13;;;4.23;;
11921;SDS011;6021;51.182;3.160;2022-09-09T09:00:42;9.27;;;3.87;;
11921;SDS011;6021;51.182;3.160;2022-09-09T09:11:38;5.00;;;3.50;;
11921;SDS011;6021;51.182;3.160;2022-09-09T09:19:30;6.00;;;3.60;;
11921;SDS011;6021;51.182;3.160;2022-09-09T09:22:15;5.37;;;3.50;;
11921;SDS011;6021;51.182;3.160;2022-09-09T09:25:05;5.83;;;2.90;;
11921;SDS011;6021;51.182;3.160;2022-09-09T09:27:40;5.73;;;3.00;;
11921;SDS011;6021;51.182;3.160;2022-09-09T09:30:18;6.00;;;3.00;;
11921;SDS011;6021;51.182;3.160;2022-09-09T09:32:54;5.13;;;3.20;;
11921;SDS011;6021;51.182;3.160;2022-09-09T09:35:22;5.20;;;3.00;;
11921;SDS011;6021;51.182;3.160;2022-09-09T09:37:50;7.30;;;3.37;;
11921;SDS011;6021;51.182;3.160;2022-09-09T09:40:20;5.10;;;3.30;;
11921;SDS011;6021;51.182;3.160;2022-09-09T09:43:02;5.73;;;3.20;;
11921;SDS011;6021;51.182;3.160;2022-09-09T09:45:34;6.80;;;3.43;;
11921;SDS011;6021;51.182;3.160;2022-09-09T09:48:05;9.10;;;3.60;;
11921;SDS011;6021;51.182;3.160;2022-09-09T09:50:35;4.83;;;3.07;;
11921;SDS011;6021;51.182;3.160;2022-09-09T09:53:20;8.07;;;3.23;;
11921;SDS011;6021;51.182;3.160;2022-09-09T09:55:57;6.80;;;3.03;;
11921;SDS011;6021;51.182;3.160;2022-09-09T09:58:29;6.93;;;3.07;;
11921;SDS011;6021;51.182;3.160;2022-09-09T10:01:00;4.57;;;2.80;;
11921;SDS011;6021;51.182;3.160;2022-09-09T10:03:29;5.10;;;2.50;;
11921;SDS011;6021;51.182;3.160;2022-09-09T10:06:01;7.27;;;3.20;;
11921;SDS011;6021;51.182;3.160;2022-09-09T10:08:33;6.50;;;2.67;;
11921;SDS011;6021;51.182;3.160;2022-09-09T10:14:04;4.40;;;2.47;;
11921;SDS011;6021;51.182;3.160;2022-09-09T10:19:34;4.40;;;2.60;;
11921;SDS011;6021;51.182;3.160;2022-09-09T10:22:10;5.25;;;2.55;;
11921;SDS011;6021;51.182;3.160;2022-09-09T10:25:02;5.17;;;2.80;;
11921;SDS011;6021;51.182;3.160;2022-09-09T10:33:07;4.80;;;2.90;;
11921;SDS011;6021;51.182;3.160;2022-09-09T10:38:16;9.75;;;3.42;;
11921;SDS011;6021;51.182;3.160;2022-09-09T10:46:32;4.40;;;3.00;;
11921;SDS011;6021;51.182;3.160;2022-09-09T10:55:13;6.63;;;3.47;;
11921;SDS011;6021;51.182;3.160;2022-09-09T10:57:48;10.90;;;3.60;;
11921;SDS011;6021;51.182;3.160;2022-09-09T11:00:27;11.17;;;3.40;;
11921;SDS011;6021;51.182;3.160;2022-09-09T11:05:53;7.40;;;3.50;;
11921;SDS011;6021;51.182;3.160;2022-09-09T11:08:25;7.87;;;3.50;;
11921;SDS011;6021;51.182;3.160;2022-09-09T11:10:58;6.63;;;3.30;;
11921;SDS011;6021;51.182;3.160;2022-09-09T11:16:30;7.10;;;3.70;;
11921;SDS011;6021;51.182;3.160;2022-09-09T11:19:18;5.33;;;3.77;;
11921;SDS011;6021;51.182;3.160;2022-09-09T11:21:52;9.57;;;3.33;;
11921;SDS011;6021;51.182;3.160;2022-09-09T11:36:56;5.70;;;4.03;;
11921;SDS011;6021;51.182;3.160;2022-09-09T11:38:52;6.40;;;3.73;;
11921;SDS011;6021;51.182;3.160;2022-09-09T11:43:59;5.80;;;3.17;;
11921;SDS011;6021;51.182;3.160;2022-09-09T11:52:10;4.10;;;3.13;;
11921;SDS011;6021;51.182;3.160;2022-09-09T11:59:49;4.87;;;2.67;;
11921;SDS011;6021;51.182;3.160;2022-09-09T12:02:54;7.57;;;2.60;;
11921;SDS011;6021;51.182;3.160;2022-09-09T12:12:53;3.30;;;2.30;;
11921;SDS011;6021;51.182;3.160;2022-09-09T12:15:25;3.97;;;2.40;;
11921;SDS011;6021;51.182;3.160;2022-09-09T12:17:58;5.80;;;2.80;;
11921;SDS011;6021;51.182;3.160;2022-09-09T12:28:41;5.60;;;4.00;;
11921;SDS011;6021;51.182;3.160;2022-09-09T12:33:41;10.77;;;5.00;;
11921;SDS011;6021;51.182;3.160;2022-09-09T12:36:14;12.73;;;5.07;;
11921;SDS011;6021;51.182;3.160;2022-09-09T12:39:14;7.40;;;4.80;;
11921;SDS011;6021;51.182;3.160;2022-09-09T12:41:41;8.30;;;4.40;;
11921;SDS011;6021;51.182;3.160;2022-09-09T12:44:14;7.30;;;3.50;;
11921;SDS011;6021;51.182;3.160;2022-09-09T12:46:43;5.80;;;2.70;;
11921;SDS011;6021;51.182;3.160;2022-09-09T12:49:24;7.03;;;2.50;;
11921;SDS011;6021;51.182;3.160;2022-09-09T12:51:54;4.77;;;2.30;;
11921;SDS011;6021;51.182;3.160;2022-09-09T12:54:23;5.30;;;2.60;;
11921;SDS011;6021;51.182;3.160;2022-09-09T12:56:52;5.70;;;2.60;;
11921;SDS011;6021;51.182;3.160;2022-09-09T12:59:24;5.80;;;2.43;;
11921;SDS011;6021;51.182;3.160;2022-09-09T13:01:58;5.97;;;2.77;;
11921;SDS011;6021;51.182;3.160;2022-09-09T13:04:26;7.03;;;2.93;;
11921;SDS011;6021;51.182;3.160;2022-09-09T13:07:04;9.37;;;3.20;;
11921;SDS011;6021;51.182;3.160;2022-09-09T13:09:36;4.50;;;3.03;;
11921;SDS011;6021;51.182;3.160;2022-09-09T13:12:05;8.37;;;3.10;;
11921;SDS011;6021;51.182;3.160;2022-09-09T13:14:36;10.00;;;3.30;;
11921;SDS011;6021;51.182;3.160;2022-09-09T13:17:05;7.33;;;3.83;;
11921;SDS011;6021;51.182;3.160;2022-09-09T13:19:44;6.93;;;3.17;;
11921;SDS011;6021;51.182;3.160;2022-09-09T13:22:12;5.93;;;3.43;;
11921;SDS011;6021;51.182;3.160;2022-09-09T13:24:45;8.83;;;3.13;;
11921;SDS011;6021;51.182;3.160;2022-09-09T13:27:30;5.67;;;2.80;;
11921;SDS011;6021;51.182;3.160;2022-09-09T13:30:18;4.87;;;2.50;;
11921;SDS011;6021;51.182;3.160;2022-09-09T13:33:18;4.97;;;3.03;;
11921;SDS011;6021;51.182;3.160;2022-09-09T13:35:53;6.53;;;2.53;;
11921;SDS011;6021;51.182;3.160;2022-09-09T13:38:25;6.30;;;2.10;;
11921;SDS011;6021;51.182;3.160;2022-09-09T13:41:05;4.07;;;2.10;;
11921;SDS011;6021;51.182;3.160;2022-09-09T13:43:42;5.10;;;1.90;;
11921;SDS011;6021;51.182;3.160;2022-09-09T13:51:41;7.70;;;2.83;;
11921;SDS011;6021;51.182;3.160;2022-09-09T13:54:11;6.00;;;2.80;;
11921;SDS011;6021;51.182;3.160;2022-09-09T13:56:44;9.33;;;3.20;;
11921;SDS011;6021;51.182;3.160;2022-09-09T13:59:15;5.87;;;2.70;;
11921;SDS011;6021;51.182;3.160;2022-09-09T14:01:47;7.23;;;2.33;;
11921;SDS011;6021;51.182;3.160;2022-09-09T14:04:19;5.50;;;2.60;;
11921;SDS011;6021;51.182;3.160;2022-09-09T14:06:47;7.37;;;2.57;;
11921;SDS011;6021;51.182;3.160;2022-09-09T14:09:17;9.97;;;2.77;;
11921;SDS011;6021;51.182;3.160;2022-09-09T14:11:48;4.30;;;2.20;;
11921;SDS011;6021;51.182;3.160;2022-09-09T14:14:16;6.00;;;2.50;;
11921;SDS011;6021;51.182;3.160;2022-09-09T14:16:44;6.13;;;2.40;;
11921;SDS011;6021;51.182;3.160;2022-09-09T14:19:12;7.73;;;2.50;;
11921;SDS011;6021;51.182;3.160;2022-09-09T14:21:41;6.27;;;2.80;;
11921;SDS011;6021;51.182;3.160;2022-09-09T14:24:09;6.93;;;2.60;;
11921;SDS011;6021;51.182;3.160;2022-09-09T14:26:38;6.10;;;3.27;;
11921;SDS011;6021;51.182;3.160;2022-09-09T14:29:07;4.80;;;2.83;;
11921;SDS011;6021;51.182;3.160;2022-09-09T14:31:35;3.80;;;2.90;;
11921;SDS011;6021;51.182;3.160;2022-09-09T14:34:04;5.63;;;2.90;;
11921;SDS011;6021;51.182;3.160;2022-09-09T14:36:32;6.97;;;2.80;;
11921;SDS011;6021;51.182;3.160;2022-09-09T14:39:00;8.57;;;3.87;;
11921;SDS011;6021;51.182;3.160;2022-09-09T14:41:29;5.60;;;2.60;;
11921;SDS011;6021;51.182;3.160;2022-09-09T14:43:58;6.27;;;2.20;;
11921;SDS011;6021;51.182;3.160;2022-09-09T14:46:26;6.43;;;2.67;;
11921;SDS011;6021;51.182;3.160;2022-09-09T14:48:55;4.47;;;2.47;;
11921;SDS011;6021;51.182;3.160;2022-09-09T14:51:23;3.73;;;2.33;;
11921;SDS011;6021;51.182;3.160;2022-09-09T14:53:55;5.93;;;2.70;;
11921;SDS011;6021;51.182;3.160;2022-09-09T14:56:25;5.13;;;2.40;;
11921;SDS011;6021;51.182;3.160;2022-09-09T14:58:57;8.57;;;3.20;;
11921;SDS011;6021;51.182;3.160;2022-09-09T15:01:28;5.87;;;2.50;;
11921;SDS011;6021;51.182;3.160;2022-09-09T15:03:58;6.13;;;2.40;;
11921;SDS011;6021;51.182;3.160;2022-09-09T15:06:28;6.03;;;2.77;;
11921;SDS011;6021;51.182;3.160;2022-09-09T15:08:59;3.63;;;2.27;;
11921;SDS011;6021;51.182;3.160;2022-09-09T15:11:30;6.00;;;3.10;;
11921;SDS011;6021;51.182;3.160;2022-09-09T15:14:01;5.40;;;3.30;;
11921;SDS011;6021;51.182;3.160;2022-09-09T15:16:30;4.77;;;3.03;;
11921;SDS011;6021;51.182;3.160;2022-09-09T15:18:59;3.90;;;2.80;;
11921;SDS011;6021;51.182;3.160;2022-09-09T15:21:35;3.87;;;2.70;;
11921;SDS011;6021;51.182;3.160;2022-09-09T15:23:59;4.87;;;2.73;;
11921;SDS011;6021;51.182;3.160;2022-09-09T15:26:28;4.67;;;2.50;;
11921;SDS011;6021;51.182;3.160;2022-09-09T15:28:56;5.17;;;2.60;;
11921;SDS011;6021;51.182;3.160;2022-09-09T15:31:27;5.20;;;2.53;;
11921;SDS011;6021;51.182;3.160;2022-09-09T15:33:58;4.57;;;2.73;;
11921;SDS011;6021;51.182;3.160;2022-09-09T15:36:40;3.47;;;2.20;;
11921;SDS011;6021;51.182;3.160;2022-09-09T15:39:11;3.20;;;2.30;;
11921;SDS011;6021;51.182;3.160;2022-09-09T15:41:42;4.20;;;2.30;;
11921;SDS011;6021;51.182;3.160;2022-09-09T15:44:13;2.70;;;2.17;;
11921;SDS011;6021;51.182;3.160;2022-09-09T15:46:43;3.90;;;2.60;;
11921;SDS011;6021;51.182;3.160;2022-09-09T15:49:21;3.80;;;2.23;;
11921;SDS011;6021;51.182;3.160;2022-09-09T15:51:54;5.73;;;2.80;;
11921;SDS011;6021;51.182;3.160;2022-09-09T15:54:24;5.00;;;2.40;;
11921;SDS011;6021;51.182;3.160;2022-09-09T15:56:54;3.33;;;2.10;;
11921;SDS011;6021;51.182;3.160;2022-09-09T15:59:25;4.80;;;2.47;;
11921;SDS011;6021;51.182;3.160;2022-09-09T16:01:55;3.90;;;2.87;;
11921;SDS011;6021;51.182;3.160;2022-09-09T16:04:25;3.60;;;2.87;;
11921;SDS011;6021;51.182;3.160;2022-09-09T16:06:59;5.17;;;2.80;;
11921;SDS011;6021;51.182;3.160;2022-09-09T16:09:31;3.93;;;2.40;;
11921;SDS011;6021;51.182;3.160;2022-09-09T16:12:02;4.90;;;2.30;;
11921;SDS011;6021;51.182;3.160;2022-09-09T16:14:36;5.40;;;2.30;;
11921;SDS011;6021;51.182;3.160;2022-09-09T16:17:05;4.23;;;2.20;;
11921;SDS011;6021;51.182;3.160;2022-09-09T16:19:34;6.83;;;2.37;;
11921;SDS011;6021;51.182;3.160;2022-09-09T16:22:02;4.83;;;2.17;;
11921;SDS011;6021;51.182;3.160;2022-09-09T16:24:33;4.43;;;2.13;;
11921;SDS011;6021;51.182;3.160;2022-09-09T16:27:01;6.87;;;2.17;;
11921;SDS011;6021;51.182;3.160;2022-09-09T16:29:29;5.17;;;2.53;;
11921;SDS011;6021;51.182;3.160;2022-09-09T16:31:58;3.80;;;2.30;;
11921;SDS011;6021;51.182;3.160;2022-09-09T16:34:26;5.53;;;2.27;;
11921;SDS011;6021;51.182;3.160;2022-09-09T16:36:55;4.70;;;2.37;;
11921;SDS011;6021;51.182;3.160;2022-09-09T16:39:24;3.87;;;2.07;;
11921;SDS011;6021;51.182;3.160;2022-09-09T16:41:53;4.80;;;2.50;;
11921;SDS011;6021;51.182;3.160;2022-09-09T16:46:57;5.37;;;2.20;;
11921;SDS011;6021;51.182;3.160;2022-09-09T16:49:26;6.23;;;2.20;;
11921;SDS011;6021;51.182;3.160;2022-09-09T16:51:57;4.93;;;2.20;;
11921;SDS011;6021;51.182;3.160;2022-09-09T16:56:57;6.70;;;2.63;;
11921;SDS011;6021;51.182;3.160;2022-09-09T16:59:27;5.63;;;2.50;;
11921;SDS011;6021;51.182;3.160;2022-09-09T17:01:55;6.23;;;2.13;;
11921;SDS011;6021;51.182;3.160;2022-09-09T17:04:26;4.17;;;2.00;;
11921;SDS011;6021;51.182;3.160;2022-09-09T17:06:55;3.57;;;1.80;;
11921;SDS011;6021;51.182;3.160;2022-09-09T17:09:25;3.90;;;2.10;;
11921;SDS011;6021;51.182;3.160;2022-09-09T17:11:57;5.47;;;1.70;;
11921;SDS011;6021;51.182;3.160;2022-09-09T17:14:26;5.73;;;1.90;;
11921;SDS011;6021;51.182;3.160;2022-09-09T17:16:55;3.43;;;1.93;;
11921;SDS011;6021;51.182;3.160;2022-09-09T17:19:24;4.80;;;1.67;;
11921;SDS011;6021;51.182;3.160;2022-09-09T17:21:54;4.93;;;1.87;;
11921;SDS011;6021;51.182;3.160;2022-09-09T17:24:23;3.90;;;1.67;;
11921;SDS011;6021;51.182;3.160;2022-09-09T17:26:53;6.00;;;1.97;;
11921;SDS011;6021;51.182;3.160;2022-09-09T17:29:21;4.00;;;1.90;;
11921;SDS011;6021;51.182;3.160;2022-09-09T17:31:50;7.40;;;1.80;;
11921;SDS011;6021;51.182;3.160;2022-09-09T17:34:18;4.00;;;1.83;;
11921;SDS011;6021;51.182;3.160;2022-09-09T17:36:46;4.80;;;2.00;;
11921;SDS011;6021;51.182;3.160;2022-09-09T17:39:15;4.30;;;1.70;;
11921;SDS011;6021;51.182;3.160;2022-09-09T17:41:43;5.80;;;1.80;;
11921;SDS011;6021;51.182;3.160;2022-09-09T17:44:12;3.60;;;1.83;;
11921;SDS011;6021;51.182;3.160;2022-09-09T17:46:42;6.47;;;1.70;;
11921;SDS011;6021;51.182;3.160;2022-09-09T17:49:21;4.80;;;1.80;;
11921;SDS011;6021;51.182;3.160;2022-09-09T17:51:49;5.63;;;2.20;;
11921;SDS011;6021;51.182;3.160;2022-09-09T17:54:18;4.83;;;1.90;;
11921;SDS011;6021;51.182;3.160;2022-09-09T17:56:48;4.40;;;1.90;;
11921;SDS011;6021;51.182;3.160;2022-09-09T17:59:16;4.93;;;1.90;;
11921;SDS011;6021;51.182;3.160;2022-09-09T18:01:46;5.53;;;2.10;;
11921;SDS011;6021;51.182;3.160;2022-09-09T18:04:16;4.07;;;1.80;;
11921;SDS011;6021;51.182;3.160;2022-09-09T18:06:46;4.97;;;1.90;;
11921;SDS011;6021;51.182;3.160;2022-09-09T18:09:19;4.77;;;2.10;;